sensor_id;sensor_type;location;lat;lon;timestamp;pressure;altitude;pressure_sealevel;temperature;humidity
70009;BME280;59542;37.950;-122.338;2022-09-09T00:01:34;100220.00;;;28.38;39.28
70009;BME280;59542;37.950;-122.338;2022-09-09T00:04:12;100211.19;;;28.32;38.56
70009;BME280;59542;37.950;-122.338;2022-09-09T00:06:48;100202.03;;;28.20;39.15
70009;BME280;59542;37.950;-122.338;2022-09-09T00:09:19;100208.81;;;28.22;39.14
70009;BME280;59542;37.950;-122.338;2022-09-09T00:11:52;100205.72;;;27.91;39.41
70009;BME280;59542;37.950;-122.338;2022-09-09T00:14:56;100205.00;;;27.81;40.43
70009;BME280;59542;37.950;-122.338;2022-09-09T00:17:38;100197.63;;;27.73;40.56
70009;BME280;59542;37.950;-122.338;2022-09-09T00:20:19;100199.38;;;27.78;39.82
70009;BME280;59542;37.950;-122.338;2022-09-09T00:28:23;100185.53;;;26.94;41.31
70009;BME280;59542;37.950;-122.338;2022-09-09T00:30:50;100190.72;;;26.87;41.79
70009;BME280;59542;37.950;-122.338;2022-09-09T00:33:20;100180.19;;;26.59;42.64
70009;BME280;59542;37.950;-122.338;2022-09-09T00:35:51;100179.56;;;26.54;41.87
70009;BME280;59542;37.950;-122.338;2022-09-09T00:42:10;100187.84;;;26.45;42.29
70009;BME280;59542;37.950;-122.338;2022-09-09T00:47:04;100172.84;;;26.25;42.65
70009;BME280;59542;37.950;-122.338;2022-09-09T00:49:40;100172.03;;;26.42;42.43
70009;BME280;59542;37.950;-122.338;2022-09-09T00:52:23;100171.91;;;26.21;42.09
70009;BME280;59542;37.950;-122.338;2022-09-09T00:57:30;100165.63;;;26.21;43.19
70009;BME280;59542;37.950;-122.338;2022-09-09T01:00:22;100157.53;;;26.33;42.58
70009;BME280;59542;37.950;-122.338;2022-09-09T01:07:53;100163.88;;;26.08;43.85
70009;BME280;59542;37.950;-122.338;2022-09-09T01:13:11;100174.56;;;25.66;44.94
70009;BME280;59542;37.950;-122.338;2022-09-09T01:15:41;100166.81;;;25.68;45.84
70009;BME280;59542;37.950;-122.338;2022-09-09T01:18:12;100170.63;;;25.15;46.99
70009;BME280;59542;37.950;-122.338;2022-09-09T01:21:04;100166.69;;;24.90;47.38
70009;BME280;59542;37.950;-122.338;2022-09-09T01:23:41;100166.66;;;24.81;47.37
70009;BME280;59542;37.950;-122.338;2022-09-09T01:26:21;100161.97;;;24.73;48.06
70009;BME280;59542;37.950;-122.338;2022-09-09T01:28:51;100170.53;;;24.40;48.30
70009;BME280;59542;37.950;-122.338;2022-09-09T01:31:28;100176.25;;;24.61;48.32
70009;BME280;59542;37.950;-122.338;2022-09-09T01:33:55;100168.66;;;24.58;47.95
70009;BME280;59542;37.950;-122.338;2022-09-09T01:36:31;100172.59;;;24.35;48.21
70009;BME280;59542;37.950;-122.338;2022-09-09T01:38:59;100180.50;;;24.14;49.24
70009;BME280;59542;37.950;-122.338;2022-09-09T01:41:25;100175.25;;;24.26;49.11
70009;BME280;59542;37.950;-122.338;2022-09-09T01:43:53;100159.19;;;24.02;49.16
70009;BME280;59542;37.950;-122.338;2022-09-09T01:46:22;100166.00;;;23.82;49.46
70009;BME280;59542;37.950;-122.338;2022-09-09T01:48:52;100164.22;;;23.64;50.27
70009;BME280;59542;37.950;-122.338;2022-09-09T01:51:19;100171.59;;;23.27;51.12
70009;BME280;59542;37.950;-122.338;2022-09-09T01:53:46;100173.63;;;23.22;50.59
70009;BME280;59542;37.950;-122.338;2022-09-09T01:59:07;100164.16;;;22.91;51.63
70009;BME280;59542;37.950;-122.338;2022-09-09T02:04:39;100167.47;;;22.75;51.96
70009;BME280;59542;37.950;-122.338;2022-09-09T02:07:19;100153.84;;;22.61;52.21
70009;BME280;59542;37.950;-122.338;2022-09-09T02:09:57;100166.25;;;22.39;52.59
70009;BME280;59542;37.950;-122.338;2022-09-09T02:12:24;100159.94;;;22.11;53.79
70009;BME280;59542;37.950;-122.338;2022-09-09T02:15:20;100160.13;;;21.82;54.51
70009;BME280;59542;37.950;-122.338;2022-09-09T02:17:50;100160.25;;;21.91;54.31
70009;BME280;59542;37.950;-122.338;2022-09-09T02:20:19;100152.72;;;21.50;56.37
70009;BME280;59542;37.950;-122.338;2022-09-09T02:22:49;100150.94;;;21.59;56.55
70009;BME280;59542;37.950;-122.338;2022-09-09T02:25:19;100144.69;;;21.59;56.25
70009;BME280;59542;37.950;-122.338;2022-09-09T02:27:50;100148.25;;;21.41;55.88
70009;BME280;59542;37.950;-122.338;2022-09-09T02:30:18;100150.47;;;21.39;56.54
70009;BME280;59542;37.950;-122.338;2022-09-09T02:32:47;100149.03;;;21.22;57.01
70009;BME280;59542;37.950;-122.338;2022-09-09T02:35:19;100160.97;;;21.02;57.29
70009;BME280;59542;37.950;-122.338;2022-09-09T02:37:49;100153.63;;;21.03;57.36
70009;BME280;59542;37.950;-122.338;2022-09-09T02:40:17;100139.50;;;21.01;57.40
70009;BME280;59542;37.950;-122.338;2022-09-09T02:42:48;100148.03;;;20.94;57.73
70009;BME280;59542;37.950;-122.338;2022-09-09T02:45:18;100147.41;;;20.78;58.60
70009;BME280;59542;37.950;-122.338;2022-09-09T02:48:14;100144.31;;;20.66;58.50
70009;BME280;59542;37.950;-122.338;2022-09-09T02:50:54;100148.47;;;20.82;57.85
70009;BME280;59542;37.950;-122.338;2022-09-09T02:53:39;100154.97;;;20.81;58.06
70009;BME280;59542;37.950;-122.338;2022-09-09T02:56:16;100148.81;;;20.52;58.82
70009;BME280;59542;37.950;-122.338;2022-09-09T02:58:44;100150.59;;;20.62;58.55
70009;BME280;59542;37.950;-122.338;2022-09-09T03:01:12;100151.00;;;20.50;58.76
70009;BME280;59542;37.950;-122.338;2022-09-09T03:03:39;100142.41;;;20.38;59.69
70009;BME280;59542;37.950;-122.338;2022-09-09T03:06:07;100151.53;;;20.23;60.44
70009;BME280;59542;37.950;-122.338;2022-09-09T03:08:33;100157.78;;;20.23;60.00
70009;BME280;59542;37.950;-122.338;2022-09-09T03:11:00;100157.72;;;19.99;61.20
70009;BME280;59542;37.950;-122.338;2022-09-09T03:13:29;100165.00;;;19.70;61.56
70009;BME280;59542;37.950;-122.338;2022-09-09T03:15:56;100160.38;;;19.70;62.32
70009;BME280;59542;37.950;-122.338;2022-09-09T03:18:22;100164.75;;;19.71;61.87
70009;BME280;59542;37.950;-122.338;2022-09-09T03:20:48;100180.50;;;19.69;62.00
70009;BME280;59542;37.950;-122.338;2022-09-09T03:23:15;100178.81;;;19.78;61.69
70009;BME280;59542;37.950;-122.338;2022-09-09T03:25:51;100181.06;;;19.66;62.11
70009;BME280;59542;37.950;-122.338;2022-09-09T03:28:21;100188.41;;;19.66;62.22
70009;BME280;59542;37.950;-122.338;2022-09-09T03:30:48;100188.16;;;19.57;62.59
70009;BME280;59542;37.950;-122.338;2022-09-09T03:33:14;100190.47;;;19.30;63.35
70009;BME280;59542;37.950;-122.338;2022-09-09T03:35:51;100189.31;;;19.46;62.89
70009;BME280;59542;37.950;-122.338;2022-09-09T03:38:17;100208.00;;;18.93;65.31
70009;BME280;59542;37.950;-122.338;2022-09-09T03:40:54;100217.19;;;19.02;65.08
70009;BME280;59542;37.950;-122.338;2022-09-09T03:43:26;100206.97;;;18.84;65.31
70009;BME280;59542;37.950;-122.338;2022-09-09T03:45:53;100207.53;;;18.70;65.78
70009;BME280;59542;37.950;-122.338;2022-09-09T03:48:26;100215.59;;;18.91;65.40
70009;BME280;59542;37.950;-122.338;2022-09-09T03:50:54;100217.03;;;18.73;66.01
70009;BME280;59542;37.950;-122.338;2022-09-09T03:53:26;100212.69;;;18.52;66.89
70009;BME280;59542;37.950;-122.338;2022-09-09T03:55:55;100210.53;;;18.48;66.91
70009;BME280;59542;37.950;-122.338;2022-09-09T03:58:23;100225.44;;;18.36;66.98
70009;BME280;59542;37.950;-122.338;2022-09-09T04:01:05;100231.41;;;18.17;67.34
70009;BME280;59542;37.950;-122.338;2022-09-09T04:03:34;100235.75;;;18.29;66.73
70009;BME280;59542;37.950;-122.338;2022-09-09T04:06:05;100231.69;;;18.21;67.00
70009;BME280;59542;37.950;-122.338;2022-09-09T04:08:33;100231.41;;;18.17;66.82
70009;BME280;59542;37.950;-122.338;2022-09-09T04:11:02;100232.75;;;18.20;66.58
70009;BME280;59542;37.950;-122.338;2022-09-09T04:13:36;100230.88;;;18.20;66.41
70009;BME280;59542;37.950;-122.338;2022-09-09T04:16:05;100227.63;;;18.18;66.23
70009;BME280;59542;37.950;-122.338;2022-09-09T04:18:32;100231.94;;;18.19;65.72
70009;BME280;59542;37.950;-122.338;2022-09-09T04:21:00;100232.75;;;18.15;66.21
70009;BME280;59542;37.950;-122.338;2022-09-09T04:23:28;100236.03;;;18.12;65.76
70009;BME280;59542;37.950;-122.338;2022-09-09T04:25:59;100229.81;;;18.11;65.98
70009;BME280;59542;37.950;-122.338;2022-09-09T04:28:29;100228.16;;;18.15;65.83
70009;BME280;59542;37.950;-122.338;2022-09-09T04:30:56;100236.28;;;18.15;65.93
70009;BME280;59542;37.950;-122.338;2022-09-09T04:33:25;100249.28;;;18.24;65.39
70009;BME280;59542;37.950;-122.338;2022-09-09T04:35:52;100250.91;;;18.30;65.53
70009;BME280;59542;37.950;-122.338;2022-09-09T04:38:20;100247.94;;;18.11;66.38
70009;BME280;59542;37.950;-122.338;2022-09-09T04:40:50;100243.63;;;18.05;66.28
70009;BME280;59542;37.950;-122.338;2022-09-09T04:43:17;100244.44;;;18.05;66.34
70009;BME280;59542;37.950;-122.338;2022-09-09T04:45:47;100246.56;;;17.93;67.29
70009;BME280;59542;37.950;-122.338;2022-09-09T04:48:14;100246.84;;;18.02;66.84
70009;BME280;59542;37.950;-122.338;2022-09-09T04:50:41;100249.84;;;18.00;66.97
70009;BME280;59542;37.950;-122.338;2022-09-09T04:53:07;100246.56;;;17.88;67.10
70009;BME280;59542;37.950;-122.338;2022-09-09T04:55:34;100241.94;;;17.73;67.90
70009;BME280;59542;37.950;-122.338;2022-09-09T04:58:05;100247.59;;;17.66;68.06
70009;BME280;59542;37.950;-122.338;2022-09-09T05:00:33;100246.75;;;17.56;68.12
70009;BME280;59542;37.950;-122.338;2022-09-09T05:03:03;100241.03;;;17.52;68.65
70009;BME280;59542;37.950;-122.338;2022-09-09T05:05:30;100240.22;;;17.52;69.00
70009;BME280;59542;37.950;-122.338;2022-09-09T05:08:04;100237.50;;;17.41;69.20
70009;BME280;59542;37.950;-122.338;2022-09-09T05:10:31;100247.47;;;17.36;69.29
70009;BME280;59542;37.950;-122.338;2022-09-09T05:12:57;100236.69;;;17.41;68.90
70009;BME280;59542;37.950;-122.338;2022-09-09T05:15:24;100235.63;;;17.52;68.52
70009;BME280;59542;37.950;-122.338;2022-09-09T05:17:50;100231.56;;;17.50;67.92
70009;BME280;59542;37.950;-122.338;2022-09-09T05:20:20;100241.59;;;17.49;68.11
70009;BME280;59542;37.950;-122.338;2022-09-09T05:22:47;100229.94;;;17.49;67.84
70009;BME280;59542;37.950;-122.338;2022-09-09T05:25:13;100228.00;;;17.34;68.45
70009;BME280;59542;37.950;-122.338;2022-09-09T05:27:39;100225.34;;;17.49;68.25
70009;BME280;59542;37.950;-122.338;2022-09-09T05:30:06;100224.78;;;17.47;67.98
70009;BME280;59542;37.950;-122.338;2022-09-09T05:32:32;100226.44;;;17.53;67.67
70009;BME280;59542;37.950;-122.338;2022-09-09T05:34:59;100236.75;;;17.61;67.15
70009;BME280;59542;37.950;-122.338;2022-09-09T05:37:27;100231.00;;;17.42;67.95
70009;BME280;59542;37.950;-122.338;2022-09-09T05:39:53;100232.03;;;17.26;68.97
70009;BME280;59542;37.950;-122.338;2022-09-09T05:42:20;100234.47;;;17.28;68.61
70009;BME280;59542;37.950;-122.338;2022-09-09T05:44:46;100226.34;;;17.23;68.77
70009;BME280;59542;37.950;-122.338;2022-09-09T05:47:12;100235.53;;;17.17;68.87
70009;BME280;59542;37.950;-122.338;2022-09-09T05:49:40;100241.44;;;17.13;69.10
70009;BME280;59542;37.950;-122.338;2022-09-09T05:52:06;100237.41;;;17.16;69.26
70009;BME280;59542;37.950;-122.338;2022-09-09T05:54:32;100231.78;;;17.28;68.94
70009;BME280;59542;37.950;-122.338;2022-09-09T05:56:59;100235.47;;;17.06;69.63
70009;BME280;59542;37.950;-122.338;2022-09-09T05:59:25;100238.22;;;17.17;69.13
70009;BME280;59542;37.950;-122.338;2022-09-09T06:01:51;100230.31;;;17.10;68.85
70009;BME280;59542;37.950;-122.338;2022-09-09T06:04:17;100230.81;;;16.97;69.40
70009;BME280;59542;37.950;-122.338;2022-09-09T06:06:46;100238.13;;;16.96;69.42
70009;BME280;59542;37.950;-122.338;2022-09-09T06:09:12;100235.41;;;16.96;69.43
70009;BME280;59542;37.950;-122.338;2022-09-09T06:11:39;100237.91;;;17.08;68.83
70009;BME280;59542;37.950;-122.338;2022-09-09T06:14:06;100237.09;;;17.07;68.72
70009;BME280;59542;37.950;-122.338;2022-09-09T06:16:33;100238.69;;;17.03;68.83
70009;BME280;59542;37.950;-122.338;2022-09-09T06:19:01;100242.78;;;17.06;68.86
70009;BME280;59542;37.950;-122.338;2022-09-09T06:21:30;100234.19;;;17.24;68.14
70009;BME280;59542;37.950;-122.338;2022-09-09T06:23:58;100233.03;;;17.10;68.22
70009;BME280;59542;37.950;-122.338;2022-09-09T06:26:30;100236.34;;;17.22;67.73
70009;BME280;59542;37.950;-122.338;2022-09-09T06:28:57;100238.22;;;17.17;67.66
70009;BME280;59542;37.950;-122.338;2022-09-09T06:31:26;100227.13;;;17.13;67.68
70009;BME280;59542;37.950;-122.338;2022-09-09T06:33:54;100223.09;;;17.26;67.13
70009;BME280;59542;37.950;-122.338;2022-09-09T06:36:22;100218.78;;;17.25;67.22
70009;BME280;59542;37.950;-122.338;2022-09-09T06:38:50;100219.84;;;17.24;66.97
70009;BME280;59542;37.950;-122.338;2022-09-09T06:41:18;100214.44;;;17.19;67.62
70009;BME280;59542;37.950;-122.338;2022-09-09T06:43:46;100231.72;;;17.12;68.01
70009;BME280;59542;37.950;-122.338;2022-09-09T06:48:39;100230.56;;;17.03;68.73
70009;BME280;59542;37.950;-122.338;2022-09-09T06:51:10;100233.84;;;17.05;68.92
70009;BME280;59542;37.950;-122.338;2022-09-09T06:53:38;100237.13;;;17.12;68.95
70009;BME280;59542;37.950;-122.338;2022-09-09T06:58:40;100225.75;;;17.05;68.51
70009;BME280;59542;37.950;-122.338;2022-09-09T07:01:16;100228.44;;;17.05;68.41
70009;BME280;59542;37.950;-122.338;2022-09-09T07:03:50;100230.91;;;17.12;68.08
70009;BME280;59542;37.950;-122.338;2022-09-09T07:06:22;100226.81;;;17.09;67.71
70009;BME280;59542;37.950;-122.338;2022-09-09T07:08:57;100227.13;;;17.13;67.66
70009;BME280;59542;37.950;-122.338;2022-09-09T07:11:29;100210.03;;;17.02;67.78
70009;BME280;59542;37.950;-122.338;2022-09-09T07:13:58;100213.88;;;17.11;67.52
70009;BME280;59542;37.950;-122.338;2022-09-09T07:16:25;100206.00;;;17.10;67.01
70009;BME280;59542;37.950;-122.338;2022-09-09T07:18:53;100203.84;;;17.12;67.15
70009;BME280;59542;37.950;-122.338;2022-09-09T07:21:30;100195.19;;;17.15;67.18
70009;BME280;59542;37.950;-122.338;2022-09-09T07:23:57;100195.50;;;17.19;66.80
70009;BME280;59542;37.950;-122.338;2022-09-09T07:26:29;100182.25;;;17.17;67.11
70009;BME280;59542;37.950;-122.338;2022-09-09T07:28:56;100181.09;;;17.03;67.45
70009;BME280;59542;37.950;-122.338;2022-09-09T07:31:26;100170.00;;;16.94;68.18
70009;BME280;59542;37.950;-122.338;2022-09-09T07:33:52;100173.75;;;16.93;68.57
70009;BME280;59542;37.950;-122.338;2022-09-09T07:36:29;100168.34;;;16.88;69.07
70009;BME280;59542;37.950;-122.338;2022-09-09T07:39:08;100175.09;;;16.91;68.97
70009;BME280;59542;37.950;-122.338;2022-09-09T07:41:40;100172.94;;;16.82;69.50
70009;BME280;59542;37.950;-122.338;2022-09-09T07:44:13;100163.44;;;16.80;70.10
70009;BME280;59542;37.950;-122.338;2022-09-09T07:46:39;100153.22;;;16.97;69.38
70009;BME280;59542;37.950;-122.338;2022-09-09T07:49:07;100146.75;;;16.98;69.35
70009;BME280;59542;37.950;-122.338;2022-09-09T07:51:36;100153.72;;;16.79;70.15
70009;BME280;59542;37.950;-122.338;2022-09-09T07:54:05;100148.31;;;16.79;70.59
70009;BME280;59542;37.950;-122.338;2022-09-09T07:56:32;100145.91;;;16.82;70.75
70009;BME280;59542;37.950;-122.338;2022-09-09T07:58:59;100141.53;;;16.76;71.04
70009;BME280;59542;37.950;-122.338;2022-09-09T08:01:34;100142.41;;;16.92;70.67
70009;BME280;59542;37.950;-122.338;2022-09-09T08:04:05;100135.59;;;16.79;71.17
70009;BME280;59542;37.950;-122.338;2022-09-09T08:06:38;100133.69;;;16.75;71.17
70009;BME280;59542;37.950;-122.338;2022-09-09T08:09:06;100130.44;;;16.73;71.45
70009;BME280;59542;37.950;-122.338;2022-09-09T08:11:34;100136.56;;;16.63;71.93
70009;BME280;59542;37.950;-122.338;2022-09-09T08:14:02;100140.13;;;16.69;71.83
70009;BME280;59542;37.950;-122.338;2022-09-09T08:16:32;100147.66;;;16.61;72.32
70009;BME280;59542;37.950;-122.338;2022-09-09T08:18:59;100135.16;;;16.50;72.52
70009;BME280;59542;37.950;-122.338;2022-09-09T08:21:29;100141.56;;;16.34;73.62
70009;BME280;59542;37.950;-122.338;2022-09-09T08:23:59;100140.28;;;16.47;73.22
70009;BME280;59542;37.950;-122.338;2022-09-09T08:26:37;100149.44;;;16.41;73.34
70009;BME280;59542;37.950;-122.338;2022-09-09T08:29:05;100148.06;;;16.43;72.97
70009;BME280;59542;37.950;-122.338;2022-09-09T08:31:37;100146.13;;;16.28;73.36
70009;BME280;59542;37.950;-122.338;2022-09-09T08:34:04;100146.34;;;16.22;73.15
70009;BME280;59542;37.950;-122.338;2022-09-09T08:36:50;100144.16;;;16.19;72.86
70009;BME280;59542;37.950;-122.338;2022-09-09T08:39:18;100136.28;;;16.12;73.05
70009;BME280;59542;37.950;-122.338;2022-09-09T08:47:29;100124.44;;;16.18;72.75
70009;BME280;59542;37.950;-122.338;2022-09-09T08:50:25;100112.25;;;16.16;73.09
70009;BME280;59542;37.950;-122.338;2022-09-09T08:55:52;100109.06;;;16.19;73.02
70009;BME280;59542;37.950;-122.338;2022-09-09T08:58:34;100113.88;;;16.12;73.24
70009;BME280;59542;37.950;-122.338;2022-09-09T09:12:16;100107.91;;;16.09;71.42
70009;BME280;59542;37.950;-122.338;2022-09-09T09:14:45;100107.91;;;16.09;71.87
70009;BME280;59542;37.950;-122.338;2022-09-09T09:17:21;100112.81;;;16.13;71.91
70009;BME280;59542;37.950;-122.338;2022-09-09T09:19:49;100116.00;;;16.09;72.57
70009;BME280;59542;37.950;-122.338;2022-09-09T09:22:30;100108.41;;;16.01;73.04
70009;BME280;59542;37.950;-122.338;2022-09-09T09:25:12;100113.88;;;16.12;72.40
70009;BME280;59542;37.950;-122.338;2022-09-09T09:30:17;100111.22;;;16.17;72.60
70009;BME280;59542;37.950;-122.338;2022-09-09T09:35:36;100103.47;;;15.88;73.95
70009;BME280;59542;37.950;-122.338;2022-09-09T09:38:21;100106.47;;;15.97;73.28
70009;BME280;59542;37.950;-122.338;2022-09-09T09:40:50;100104.97;;;15.74;74.02
70009;BME280;59542;37.950;-122.338;2022-09-09T09:45:52;100100.56;;;16.00;73.75
70009;BME280;59542;37.950;-122.338;2022-09-09T09:48:18;100102.97;;;15.96;74.13
70009;BME280;59542;37.950;-122.338;2022-09-09T09:50:48;100097.91;;;16.05;73.68
70009;BME280;59542;37.950;-122.338;2022-09-09T09:53:27;100100.47;;;15.84;73.67
70009;BME280;59542;37.950;-122.338;2022-09-09T09:56:00;100102.94;;;15.91;72.71
70009;BME280;59542;37.950;-122.338;2022-09-09T09:58:30;100083.53;;;15.94;72.56
70009;BME280;59542;37.950;-122.338;2022-09-09T10:01:00;100084.53;;;15.83;73.04
70009;BME280;59542;37.950;-122.338;2022-09-09T10:03:31;100079.25;;;16.03;72.19
70009;BME280;59542;37.950;-122.338;2022-09-09T10:05:58;100079.78;;;16.00;72.85
70009;BME280;59542;37.950;-122.338;2022-09-09T10:08:25;100078.91;;;15.90;73.13
70009;BME280;59542;37.950;-122.338;2022-09-09T10:13:56;100074.78;;;15.77;73.57
70009;BME280;59542;37.950;-122.338;2022-09-09T10:19:16;100078.34;;;15.55;73.96
70009;BME280;59542;37.950;-122.338;2022-09-09T10:22:11;100081.09;;;15.61;74.22
70009;BME280;59542;37.950;-122.338;2022-09-09T10:33:58;100065.91;;;15.87;72.73
70009;BME280;59542;37.950;-122.338;2022-09-09T10:36:28;100073.47;;;15.84;72.95
70009;BME280;59542;37.950;-122.338;2022-09-09T10:41:58;100072.41;;;15.86;72.96
70009;BME280;59542;37.950;-122.338;2022-09-09T10:50:40;100070.25;;;15.82;73.18
70009;BME280;59542;37.950;-122.338;2022-09-09T10:53:28;100069.66;;;15.80;73.51
70009;BME280;59542;37.950;-122.338;2022-09-09T10:56:09;100066.47;;;15.83;73.19
70009;BME280;59542;37.950;-122.338;2022-09-09T11:01:34;100055.59;;;15.73;73.60
70009;BME280;59542;37.950;-122.338;2022-09-09T11:04:35;100040.72;;;15.66;73.73
70009;BME280;59542;37.950;-122.338;2022-09-09T11:07:12;100039.31;;;15.63;73.03
70009;BME280;59542;37.950;-122.338;2022-09-09T11:09:46;100036.81;;;15.56;73.06
70009;BME280;59542;37.950;-122.338;2022-09-09T11:12:19;100029.78;;;15.50;73.07
70009;BME280;59542;37.950;-122.338;2022-09-09T11:14:50;100037.25;;;15.43;73.31
70009;BME280;59542;37.950;-122.338;2022-09-09T11:17:33;100027.84;;;15.46;73.17
70009;BME280;59542;37.950;-122.338;2022-09-09T11:20:04;100031.16;;;15.58;72.80
70009;BME280;59542;37.950;-122.338;2022-09-09T11:22:37;100022.25;;;15.57;73.03
70009;BME280;59542;37.950;-122.338;2022-09-09T11:30:38;100029.06;;;15.65;72.56
70009;BME280;59542;37.950;-122.338;2022-09-09T11:33:34;100018.56;;;15.64;72.57
70009;BME280;59542;37.950;-122.338;2022-09-09T11:36:37;100010.94;;;15.55;72.96
70009;BME280;59542;37.950;-122.338;2022-09-09T11:39:42;100005.38;;;15.67;72.59
70009;BME280;59542;37.950;-122.338;2022-09-09T11:42:22;100003.91;;;15.59;72.70
70009;BME280;59542;37.950;-122.338;2022-09-09T11:44:49;100005.13;;;15.74;72.20
70009;BME280;59542;37.950;-122.338;2022-09-09T11:47:30;100003.53;;;15.73;72.29
70009;BME280;59542;37.950;-122.338;2022-09-09T11:52:45;99994.84;;;15.66;72.98
70009;BME280;59542;37.950;-122.338;2022-09-09T11:58:05;99990.19;;;15.61;73.50
70009;BME280;59542;37.950;-122.338;2022-09-09T12:00:42;99992.75;;;15.78;72.66
70009;BME280;59542;37.950;-122.338;2022-09-09T12:03:45;99994.22;;;15.58;73.09
70009;BME280;59542;37.950;-122.338;2022-09-09T12:06:32;99998.28;;;15.61;73.08
70009;BME280;59542;37.950;-122.338;2022-09-09T12:09:20;99998.75;;;15.53;73.53
70009;BME280;59542;37.950;-122.338;2022-09-09T12:11:49;99998.13;;;15.73;72.73
70009;BME280;59542;37.950;-122.338;2022-09-09T12:14:36;100005.88;;;15.64;73.08
70009;BME280;59542;37.950;-122.338;2022-09-09T12:17:30;100004.50;;;15.62;73.44
70009;BME280;59542;37.950;-122.338;2022-09-09T12:20:14;100008.09;;;15.72;73.41
70009;BME280;59542;37.950;-122.338;2022-09-09T12:23:10;100005.63;;;15.66;73.60
70009;BME280;59542;37.950;-122.338;2022-09-09T12:25:55;100007.44;;;15.60;74.20
70009;BME280;59542;37.950;-122.338;2022-09-09T12:31:10;100003.34;;;15.52;74.24
70009;BME280;59542;37.950;-122.338;2022-09-09T12:33:44;99999.88;;;15.57;74.35
70009;BME280;59542;37.950;-122.338;2022-09-09T12:36:37;100005.78;;;15.54;74.21
70009;BME280;59542;37.950;-122.338;2022-09-09T12:39:22;100007.16;;;15.56;73.76
70009;BME280;59542;37.950;-122.338;2022-09-09T12:41:53;99991.00;;;15.62;73.75
70009;BME280;59542;37.950;-122.338;2022-09-09T12:44:24;99991.81;;;15.62;73.44
70009;BME280;59542;37.950;-122.338;2022-09-09T12:46:52;99983.47;;;15.64;73.19
70009;BME280;59542;37.950;-122.338;2022-09-09T12:49:38;99982.44;;;15.70;73.15
70009;BME280;59542;37.950;-122.338;2022-09-09T12:52:34;99980.72;;;15.58;73.63
70009;BME280;59542;37.950;-122.338;2022-09-09T12:55:03;99977.28;;;15.63;73.56
70009;BME280;59542;37.950;-122.338;2022-09-09T12:57:40;99981.28;;;15.61;73.69
70009;BME280;59542;37.950;-122.338;2022-09-09T13:00:07;99986.94;;;15.59;73.45
70009;BME280;59542;37.950;-122.338;2022-09-09T13:02:35;99983.78;;;15.67;73.04
70009;BME280;59542;37.950;-122.338;2022-09-09T13:05:26;99980.94;;;15.52;73.43
70009;BME280;59542;37.950;-122.338;2022-09-09T13:08:04;99989.13;;;15.62;73.23
70009;BME280;59542;37.950;-122.338;2022-09-09T13:10:55;99986.28;;;15.79;71.76
70009;BME280;59542;37.950;-122.338;2022-09-09T13:13:38;99985.91;;;15.65;72.18
70009;BME280;59542;37.950;-122.338;2022-09-09T13:16:15;99989.88;;;15.57;72.76
70009;BME280;59542;37.950;-122.338;2022-09-09T13:18:44;99992.78;;;15.46;73.80
70009;BME280;59542;37.950;-122.338;2022-09-09T13:21:10;99985.31;;;15.58;73.58
70009;BME280;59542;37.950;-122.338;2022-09-09T13:23:37;99996.91;;;15.58;73.54
70009;BME280;59542;37.950;-122.338;2022-09-09T13:26:23;99993.41;;;15.58;73.68
70009;BME280;59542;37.950;-122.338;2022-09-09T13:28:50;100000.03;;;15.40;74.71
70009;BME280;59542;37.950;-122.338;2022-09-09T13:31:30;99996.78;;;15.43;74.28
70009;BME280;59542;37.950;-122.338;2022-09-09T13:33:58;99992.38;;;15.32;74.87
70009;BME280;59542;37.950;-122.338;2022-09-09T13:36:34;99990.81;;;15.36;74.57
70009;BME280;59542;37.950;-122.338;2022-09-09T13:39:02;99986.53;;;15.40;74.57
70009;BME280;59542;37.950;-122.338;2022-09-09T13:41:32;99993.00;;;15.39;74.35
70009;BME280;59542;37.950;-122.338;2022-09-09T13:44:00;99992.69;;;15.36;74.75
70009;BME280;59542;37.950;-122.338;2022-09-09T13:46:38;99993.00;;;15.39;74.63
70009;BME280;59542;37.950;-122.338;2022-09-09T13:51:38;100002.25;;;15.53;74.28
70009;BME280;59542;37.950;-122.338;2022-09-09T13:54:06;100004.25;;;15.63;73.99
70009;BME280;59542;37.950;-122.338;2022-09-09T13:56:36;99996.03;;;15.48;74.85
70009;BME280;59542;37.950;-122.338;2022-09-09T13:59:05;100002.59;;;15.62;74.29
70009;BME280;59542;37.950;-122.338;2022-09-09T14:01:32;99999.34;;;15.60;74.57
70009;BME280;59542;37.950;-122.338;2022-09-09T14:04:00;100003.34;;;15.52;75.09
70009;BME280;59542;37.950;-122.338;2022-09-09T14:06:26;100002.16;;;15.38;75.20
70009;BME280;59542;37.950;-122.338;2022-09-09T14:08:54;100000.03;;;15.40;75.36
70009;BME280;59542;37.950;-122.338;2022-09-09T14:11:21;99990.16;;;15.56;74.54
70009;BME280;59542;37.950;-122.338;2022-09-09T14:13:50;99991.47;;;15.53;74.96
70009;BME280;59542;37.950;-122.338;2022-09-09T14:16:17;99993.81;;;15.40;75.36
70009;BME280;59542;37.950;-122.338;2022-09-09T14:18:44;99982.13;;;15.29;75.72
70009;BME280;59542;37.950;-122.338;2022-09-09T14:21:11;99989.50;;;15.39;75.54
70009;BME280;59542;37.950;-122.338;2022-09-09T14:23:38;99998.94;;;15.41;75.84
70009;BME280;59542;37.950;-122.338;2022-09-09T14:26:05;100005.56;;;15.61;75.71
70009;BME280;59542;37.950;-122.338;2022-09-09T14:28:32;100000.66;;;15.52;76.22
70009;BME280;59542;37.950;-122.338;2022-09-09T14:31:03;100010.88;;;15.50;76.53